sensor_id;sensor_type;location;lat;lon;timestamp;P1;durP1;ratioP1;P2;durP2;ratioP2
50543;SDS011;41176;44.032;20.900;2023-02-15T00:02:19;1.38;;;1.17;;
50543;SDS011;41176;44.032;20.900;2023-02-15T00:04:45;2.95;;;2.05;;
50543;SDS011;41176;44.032;20.900;2023-02-15T00:07:14;1.85;;;1.50;;
50543;SDS011;41176;44.032;20.900;2023-02-15T00:09:44;1.05;;;0.88;;
50543;SDS011;41176;44.032;20.900;2023-02-15T00:12:11;3.22;;;1.98;;
50543;SDS011;41176;44.032;20.900;2023-02-15T00:14:47;5.30;;;2.60;;
50543;SDS011;41176;44.032;20.900;2023-02-15T00:17:13;2.05;;;1.23;;
50543;SDS011;41176;44.032;20.900;2023-02-15T00:19:38;1.92;;;1.75;;
50543;SDS011;41176;44.032;20.900;2023-02-15T00:22:05;5.60;;;1.98;;
50543;SDS011;41176;44.032;20.900;2023-02-15T00:24:31;7.18;;;1.80;;
50543;SDS011;41176;44.032;20.900;2023-02-15T00:26:57;7.07;;;4.20;;
50543;SDS011;41176;44.032;20.900;2023-02-15T00:29:23;4.10;;;2.35;;
50543;SDS011;41176;44.032;20.900;2023-02-15T00:31:49;2.95;;;2.75;;
50543;SDS011;41176;44.032;20.900;2023-02-15T00:34:25;2.58;;;2.38;;
50543;SDS011;41176;44.032;20.900;2023-02-15T00:36:52;2.78;;;1.95;;
50543;SDS011;41176;44.032;20.900;2023-02-15T00:39:18;2.35;;;1.38;;
50543;SDS011;41176;44.032;20.900;2023-02-15T00:41:49;3.55;;;1.95;;
50543;SDS011;41176;44.032;20.900;2023-02-15T00:44:17;2.70;;;1.60;;
50543;SDS011;41176;44.032;20.900;2023-02-15T00:46:43;4.13;;;3.08;;
50543;SDS011;41176;44.032;20.900;2023-02-15T00:49:09;3.30;;;2.40;;
50543;SDS011;41176;44.032;20.900;2023-02-15T00:58:43;3.22;;;2.28;;
50543;SDS011;41176;44.032;20.900;2023-02-15T01:01:12;2.05;;;1.45;;
50543;SDS011;41176;44.032;20.900;2023-02-15T01:27:38;4.40;;;1.60;;
50543;SDS011;41176;44.032;20.900;2023-02-15T01:34:21;1.85;;;1.48;;
50543;SDS011;41176;44.032;20.900;2023-02-15T01:36:46;4.32;;;2.22;;
50543;SDS011;41176;44.032;20.900;2023-02-15T01:39:14;2.13;;;1.98;;
50543;SDS011;41176;44.032;20.900;2023-02-15T01:41:59;3.15;;;2.33;;
50543;SDS011;41176;44.032;20.900;2023-02-15T01:50:24;1.63;;;1.42;;
50543;SDS011;41176;44.032;20.900;2023-02-15T01:55:34;2.97;;;1.70;;
50543;SDS011;41176;44.032;20.900;2023-02-15T01:58:04;3.45;;;2.60;;
50543;SDS011;41176;44.032;20.900;2023-02-15T02:00:31;1.80;;;1.70;;
50543;SDS011;41176;44.032;20.900;2023-02-15T02:02:57;7.28;;;1.77;;
50543;SDS011;41176;44.032;20.900;2023-02-15T02:05:24;0.70;;;0.60;;
50543;SDS011;41176;44.032;20.900;2023-02-15T02:07:50;2.67;;;1.67;;
50543;SDS011;41176;44.032;20.900;2023-02-15T02:10:19;1.80;;;1.33;;
50543;SDS011;41176;44.032;20.900;2023-02-15T02:12:47;0.82;;;0.73;;
50543;SDS011;41176;44.032;20.900;2023-02-15T02:15:16;2.10;;;1.80;;
50543;SDS011;41176;44.032;20.900;2023-02-15T02:18:03;3.30;;;1.20;;
50543;SDS011;41176;44.032;20.900;2023-02-15T02:23:22;1.23;;;0.80;;
50543;SDS011;41176;44.032;20.900;2023-02-15T02:28:58;1.00;;;0.93;;
50543;SDS011;41176;44.032;20.900;2023-02-15T02:39:54;3.92;;;2.53;;
50543;SDS011;41176;44.032;20.900;2023-02-15T02:45:39;1.75;;;1.65;;
50543;SDS011;41176;44.032;20.900;2023-02-15T02:48:14;5.53;;;3.80;;
50543;SDS011;41176;44.032;20.900;2023-02-15T02:50:43;3.27;;;2.27;;
50543;SDS011;41176;44.032;20.900;2023-02-15T02:53:11;6.55;;;3.55;;
50543;SDS011;41176;44.032;20.900;2023-02-15T03:02:11;6.20;;;3.38;;
50543;SDS011;41176;44.032;20.900;2023-02-15T03:05:04;2.28;;;2.08;;
50543;SDS011;41176;44.032;20.900;2023-02-15T03:07:32;3.45;;;1.92;;
50543;SDS011;41176;44.032;20.900;2023-02-15T03:10:01;3.85;;;2.72;;
50543;SDS011;41176;44.032;20.900;2023-02-15T03:12:31;1.60;;;1.45;;
50543;SDS011;41176;44.032;20.900;2023-02-15T03:15:04;2.63;;;1.20;;
50543;SDS011;41176;44.032;20.900;2023-02-15T03:18:12;1.73;;;0.90;;
50543;SDS011;41176;44.032;20.900;2023-02-15T03:20:40;1.55;;;1.25;;
50543;SDS011;41176;44.032;20.900;2023-02-15T03:23:06;0.75;;;0.73;;
50543;SDS011;41176;44.032;20.900;2023-02-15T03:25:41;4.20;;;2.08;;
50543;SDS011;41176;44.032;20.900;2023-02-15T03:28:13;1.30;;;1.20;;
50543;SDS011;41176;44.032;20.900;2023-02-15T03:30:44;2.03;;;1.83;;
50543;SDS011;41176;44.032;20.900;2023-02-15T03:33:13;3.72;;;3.03;;
50543;SDS011;41176;44.032;20.900;2023-02-15T03:38:11;1.92;;;1.73;;
50543;SDS011;41176;44.032;20.900;2023-02-15T03:40:42;3.28;;;1.98;;
50543;SDS011;41176;44.032;20.900;2023-02-15T03:46:15;2.10;;;1.88;;
50543;SDS011;41176;44.032;20.900;2023-02-15T03:59:42;2.28;;;1.55;;
50543;SDS011;41176;44.032;20.900;2023-02-15T04:02:35;4.50;;;2.67;;
50543;SDS011;41176;44.032;20.900;2023-02-15T04:08:42;1.90;;;1.40;;
50543;SDS011;41176;44.032;20.900;2023-02-15T04:11:52;1.67;;;1.35;;
50543;SDS011;41176;44.032;20.900;2023-02-15T04:14:18;3.45;;;2.15;;
50543;SDS011;41176;44.032;20.900;2023-02-15T04:17:04;2.03;;;1.17;;
50543;SDS011;41176;44.032;20.900;2023-02-15T04:19:31;0.52;;;0.43;;
50543;SDS011;41176;44.032;20.900;2023-02-15T04:24:59;1.45;;;1.35;;
50543;SDS011;41176;44.032;20.900;2023-02-15T04:27:34;1.90;;;1.42;;
50543;SDS011;41176;44.032;20.900;2023-02-15T04:30:00;1.25;;;0.80;;
50543;SDS011;41176;44.032;20.900;2023-02-15T04:32:26;1.60;;;1.50;;
50543;SDS011;41176;44.032;20.900;2023-02-15T04:34:52;5.95;;;2.83;;
50543;SDS011;41176;44.032;20.900;2023-02-15T04:37:18;1.75;;;1.40;;
50543;SDS011;41176;44.032;20.900;2023-02-15T04:39:44;1.90;;;1.55;;
50543;SDS011;41176;44.032;20.900;2023-02-15T04:42:10;1.77;;;1.30;;
50543;SDS011;41176;44.032;20.900;2023-02-15T04:44:35;1.48;;;1.13;;
50543;SDS011;41176;44.032;20.900;2023-02-15T04:47:01;6.18;;;2.85;;
50543;SDS011;41176;44.032;20.900;2023-02-15T04:49:35;2.13;;;1.50;;
50543;SDS011;41176;44.032;20.900;2023-02-15T04:52:09;6.60;;;3.03;;
50543;SDS011;41176;44.032;20.900;2023-02-15T04:54:36;3.33;;;2.10;;
50543;SDS011;41176;44.032;20.900;2023-02-15T04:57:16;1.75;;;1.05;;
50543;SDS011;41176;44.032;20.900;2023-02-15T04:59:50;1.85;;;1.50;;
50543;SDS011;41176;44.032;20.900;2023-02-15T05:02:16;1.48;;;1.38;;
50543;SDS011;41176;44.032;20.900;2023-02-15T05:04:51;2.05;;;1.23;;
50543;SDS011;41176;44.032;20.900;2023-02-15T05:07:21;4.55;;;2.88;;
50543;SDS011;41176;44.032;20.900;2023-02-15T05:09:53;1.00;;;0.88;;
50543;SDS011;41176;44.032;20.900;2023-02-15T05:12:19;3.22;;;1.75;;
50543;SDS011;41176;44.032;20.900;2023-02-15T05:14:44;3.65;;;1.45;;
50543;SDS011;41176;44.032;20.900;2023-02-15T05:17:10;3.70;;;2.20;;
50543;SDS011;41176;44.032;20.900;2023-02-15T05:19:38;2.72;;;2.13;;
50543;SDS011;41176;44.032;20.900;2023-02-15T05:22:04;1.67;;;1.10;;
50543;SDS011;41176;44.032;20.900;2023-02-15T05:24:30;8.02;;;3.83;;
50543;SDS011;41176;44.032;20.900;2023-02-15T05:27:14;4.35;;;3.13;;
50543;SDS011;41176;44.032;20.900;2023-02-15T05:29:58;3.05;;;2.63;;
50543;SDS011;41176;44.032;20.900;2023-02-15T05:32:24;1.25;;;1.15;;
50543;SDS011;41176;44.032;20.900;2023-02-15T05:34:49;4.97;;;2.85;;
50543;SDS011;41176;44.032;20.900;2023-02-15T05:37:15;3.28;;;1.90;;
50543;SDS011;41176;44.032;20.900;2023-02-15T05:39:59;3.10;;;2.83;;
50543;SDS011;41176;44.032;20.900;2023-02-15T05:42:35;4.55;;;3.08;;
50543;SDS011;41176;44.032;20.900;2023-02-15T05:54:07;3.20;;;1.10;;
50543;SDS011;41176;44.032;20.900;2023-02-15T05:56:35;1.85;;;1.05;;
50543;SDS011;41176;44.032;20.900;2023-02-15T05:59:01;2.97;;;2.20;;
50543;SDS011;41176;44.032;20.900;2023-02-15T06:01:27;5.65;;;3.50;;
50543;SDS011;41176;44.032;20.900;2023-02-15T06:03:53;5.03;;;2.88;;
50543;SDS011;41176;44.032;20.900;2023-02-15T06:06:20;3.08;;;2.83;;
50543;SDS011;41176;44.032;20.900;2023-02-15T06:08:46;2.42;;;2.22;;
50543;SDS011;41176;44.032;20.900;2023-02-15T06:11:12;2.20;;;1.83;;
50543;SDS011;41176;44.032;20.900;2023-02-15T06:13:38;3.67;;;1.88;;
50543;SDS011;41176;44.032;20.900;2023-02-15T06:16:03;1.63;;;1.25;;
50543;SDS011;41176;44.032;20.900;2023-02-15T06:18:30;3.45;;;2.80;;
50543;SDS011;41176;44.032;20.900;2023-02-15T06:20:56;6.15;;;3.90;;
50543;SDS011;41176;44.032;20.900;2023-02-15T06:23:21;3.83;;;3.38;;
50543;SDS011;41176;44.032;20.900;2023-02-15T06:25:47;1.08;;;0.95;;
50543;SDS011;41176;44.032;20.900;2023-02-15T06:28:13;3.15;;;2.13;;
50543;SDS011;41176;44.032;20.900;2023-02-15T06:30:39;3.83;;;2.00;;
50543;SDS011;41176;44.032;20.900;2023-02-15T06:33:05;2.88;;;1.52;;
50543;SDS011;41176;44.032;20.900;2023-02-15T06:35:30;6.80;;;2.67;;
50543;SDS011;41176;44.032;20.900;2023-02-15T06:37:56;7.05;;;2.25;;
50543;SDS011;41176;44.032;20.900;2023-02-15T06:40:22;4.13;;;1.85;;
50543;SDS011;41176;44.032;20.900;2023-02-15T06:42:47;2.80;;;2.47;;
50543;SDS011;41176;44.032;20.900;2023-02-15T06:45:13;5.60;;;3.60;;
50543;SDS011;41176;44.032;20.900;2023-02-15T06:47:39;6.28;;;2.97;;
50543;SDS011;41176;44.032;20.900;2023-02-15T06:50:05;5.53;;;3.00;;
50543;SDS011;41176;44.032;20.900;2023-02-15T06:52:32;7.75;;;4.07;;
50543;SDS011;41176;44.032;20.900;2023-02-15T06:54:58;5.18;;;3.55;;
50543;SDS011;41176;44.032;20.900;2023-02-15T06:57:24;7.32;;;3.90;;
50543;SDS011;41176;44.032;20.900;2023-02-15T06:59:49;3.08;;;2.78;;
50543;SDS011;41176;44.032;20.900;2023-02-15T07:02:15;6.68;;;5.00;;
50543;SDS011;41176;44.032;20.900;2023-02-15T07:04:41;7.38;;;6.03;;
50543;SDS011;41176;44.032;20.900;2023-02-15T07:07:10;8.05;;;6.28;;
50543;SDS011;41176;44.032;20.900;2023-02-15T07:09:37;7.72;;;5.85;;
50543;SDS011;41176;44.032;20.900;2023-02-15T07:12:03;10.15;;;5.20;;
50543;SDS011;41176;44.032;20.900;2023-02-15T07:14:48;6.35;;;3.42;;
50543;SDS011;41176;44.032;20.900;2023-02-15T07:17:16;7.15;;;3.17;;
50543;SDS011;41176;44.032;20.900;2023-02-15T07:19:44;7.95;;;5.63;;
50543;SDS011;41176;44.032;20.900;2023-02-15T07:22:10;11.07;;;5.80;;
50543;SDS011;41176;44.032;20.900;2023-02-15T07:24:43;8.43;;;4.07;;
50543;SDS011;41176;44.032;20.900;2023-02-15T07:27:22;7.20;;;4.57;;
50543;SDS011;41176;44.032;20.900;2023-02-15T07:29:47;9.18;;;4.35;;
50543;SDS011;41176;44.032;20.900;2023-02-15T07:32:32;3.00;;;2.15;;
50543;SDS011;41176;44.032;20.900;2023-02-15T07:34:58;12.57;;;6.28;;
50543;SDS011;41176;44.032;20.900;2023-02-15T07:37:25;6.63;;;3.75;;
50543;SDS011;41176;44.032;20.900;2023-02-15T07:39:56;11.93;;;6.13;;
50543;SDS011;41176;44.032;20.900;2023-02-15T07:42:42;7.30;;;5.45;;
50543;SDS011;41176;44.032;20.900;2023-02-15T07:45:20;5.65;;;4.68;;
50543;SDS011;41176;44.032;20.900;2023-02-15T07:54:46;6.22;;;2.42;;
50543;SDS011;41176;44.032;20.900;2023-02-15T08:00:21;4.47;;;2.83;;
50543;SDS011;41176;44.032;20.900;2023-02-15T08:06:20;3.30;;;1.42;;
50543;SDS011;41176;44.032;20.900;2023-02-15T08:09:20;3.17;;;2.28;;
50543;SDS011;41176;44.032;20.900;2023-02-15T08:14:14;2.92;;;2.65;;
50543;SDS011;41176;44.032;20.900;2023-02-15T08:17:25;2.75;;;2.47;;
50543;SDS011;41176;44.032;20.900;2023-02-15T08:22:42;4.25;;;2.08;;
50543;SDS011;41176;44.032;20.900;2023-02-15T08:25:11;7.47;;;3.22;;
50543;SDS011;41176;44.032;20.900;2023-02-15T08:27:43;1.85;;;1.58;;
50543;SDS011;41176;44.032;20.900;2023-02-15T08:30:17;3.17;;;1.85;;
50543;SDS011;41176;44.032;20.900;2023-02-15T08:32:43;2.72;;;2.25;;
50543;SDS011;41176;44.032;20.900;2023-02-15T08:35:08;4.03;;;2.00;;
50543;SDS011;41176;44.032;20.900;2023-02-15T08:37:34;2.15;;;1.60;;
50543;SDS011;41176;44.032;20.900;2023-02-15T09:29:07;3.65;;;2.40;;
50543;SDS011;41176;44.032;20.900;2023-02-15T09:45:35;3.38;;;2.15;;
50543;SDS011;41176;44.032;20.900;2023-02-15T09:55:54;4.03;;;1.90;;
50543;SDS011;41176;44.032;20.900;2023-02-15T10:18:02;1.02;;;0.77;;
50543;SDS011;41176;44.032;20.900;2023-02-15T10:23:34;4.72;;;2.15;;
50543;SDS011;41176;44.032;20.900;2023-02-15T10:26:16;3.28;;;2.33;;
50543;SDS011;41176;44.032;20.900;2023-02-15T10:28:48;3.15;;;2.10;;
50543;SDS011;41176;44.032;20.900;2023-02-15T11:06:54;4.45;;;1.80;;
50543;SDS011;41176;44.032;20.900;2023-02-15T11:09:24;6.00;;;2.25;;
50543;SDS011;41176;44.032;20.900;2023-02-15T11:11:56;3.83;;;1.98;;
50543;SDS011;41176;44.032;20.900;2023-02-15T11:17:22;5.88;;;2.03;;
50543;SDS011;41176;44.032;20.900;2023-02-15T11:20:06;5.28;;;2.30;;
50543;SDS011;41176;44.032;20.900;2023-02-15T11:22:33;4.70;;;1.83;;
50543;SDS011;41176;44.032;20.900;2023-02-15T11:25:00;3.20;;;2.00;;
50543;SDS011;41176;44.032;20.900;2023-02-15T11:27:28;3.90;;;1.80;;
50543;SDS011;41176;44.032;20.900;2023-02-15T11:30:05;7.97;;;2.20;;
50543;SDS011;41176;44.032;20.900;2023-02-15T11:32:43;3.65;;;1.77;;
50543;SDS011;41176;44.032;20.900;2023-02-15T11:35:22;4.15;;;1.67;;
50543;SDS011;41176;44.032;20.900;2023-02-15T11:40:25;4.00;;;2.00;;
50543;SDS011;41176;44.032;20.900;2023-02-15T11:43:06;4.20;;;2.42;;
50543;SDS011;41176;44.032;20.900;2023-02-15T11:48:10;2.63;;;1.58;;
50543;SDS011;41176;44.032;20.900;2023-02-15T11:50:37;6.03;;;2.63;;
50543;SDS011;41176;44.032;20.900;2023-02-15T11:53:04;5.10;;;1.45;;
50543;SDS011;41176;44.032;20.900;2023-02-15T11:55:38;4.80;;;2.05;;
50543;SDS011;41176;44.032;20.900;2023-02-15T11:58:08;4.15;;;1.95;;
50543;SDS011;41176;44.032;20.900;2023-02-15T12:00:47;5.75;;;3.10;;
50543;SDS011;41176;44.032;20.900;2023-02-15T12:03:18;3.85;;;1.75;;
50543;SDS011;41176;44.032;20.900;2023-02-15T12:05:53;3.65;;;1.98;;
50543;SDS011;41176;44.032;20.900;2023-02-15T12:08:25;4.20;;;2.10;;
50543;SDS011;41176;44.032;20.900;2023-02-15T12:11:07;3.72;;;1.40;;
50543;SDS011;41176;44.032;20.900;2023-02-15T12:13:37;3.55;;;2.33;;
50543;SDS011;41176;44.032;20.900;2023-02-15T12:16:23;3.42;;;2.38;;
50543;SDS011;41176;44.032;20.900;2023-02-15T12:18:50;3.25;;;1.52;;
50543;SDS011;41176;44.032;20.900;2023-02-15T12:21:24;5.40;;;2.67;;
50543;SDS011;41176;44.032;20.900;2023-02-15T12:23:54;4.60;;;1.93;;
50543;SDS011;41176;44.032;20.900;2023-02-15T12:27:34;3.53;;;1.83;;
50543;SDS011;41176;44.032;20.900;2023-02-15T12:30:04;3.28;;;1.55;;
50543;SDS011;41176;44.032;20.900;2023-02-15T12:32:51;7.00;;;3.03;;
50543;SDS011;41176;44.032;20.900;2023-02-15T12:35:30;4.97;;;2.33;;
50543;SDS011;41176;44.032;20.900;2023-02-15T12:40:35;4.35;;;1.98;;
50543;SDS011;41176;44.032;20.900;2023-02-15T12:43:02;4.45;;;2.40;;
50543;SDS011;41176;44.032;20.900;2023-02-15T12:45:34;6.00;;;2.38;;
50543;SDS011;41176;44.032;20.900;2023-02-15T12:50:33;3.85;;;1.63;;
50543;SDS011;41176;44.032;20.900;2023-02-15T12:53:06;5.90;;;2.10;;
50543;SDS011;41176;44.032;20.900;2023-02-15T12:58:32;3.83;;;2.15;;
50543;SDS011;41176;44.032;20.900;2023-02-15T13:01:12;3.60;;;2.00;;
50543;SDS011;41176;44.032;20.900;2023-02-15T13:03:55;5.30;;;2.70;;
50543;SDS011;41176;44.032;20.900;2023-02-15T13:06:27;3.50;;;1.55;;
50543;SDS011;41176;44.032;20.900;2023-02-15T13:08:55;3.67;;;1.85;;
50543;SDS011;41176;44.032;20.900;2023-02-15T13:11:36;3.55;;;2.28;;
50543;SDS011;41176;44.032;20.900;2023-02-15T13:14:16;5.22;;;2.90;;
50543;SDS011;41176;44.032;20.900;2023-02-15T13:17:03;4.90;;;2.50;;
50543;SDS011;41176;44.032;20.900;2023-02-15T13:22:13;6.05;;;2.60;;
50543;SDS011;41176;44.032;20.900;2023-02-15T13:24:42;5.95;;;2.75;;
50543;SDS011;41176;44.032;20.900;2023-02-15T13:27:14;7.22;;;2.88;;
50543;SDS011;41176;44.032;20.900;2023-02-15T13:29:49;4.00;;;2.30;;
50543;SDS011;41176;44.032;20.900;2023-02-15T13:35:03;4.47;;;2.13;;
50543;SDS011;41176;44.032;20.900;2023-02-15T13:51:51;5.18;;;3.10;;
50543;SDS011;41176;44.032;20.900;2023-02-15T14:07:56;4.88;;;2.10;;
50543;SDS011;41176;44.032;20.900;2023-02-15T14:26:45;5.75;;;2.40;;
50543;SDS011;41176;44.032;20.900;2023-02-15T14:32:41;4.00;;;1.55;;
50543;SDS011;41176;44.032;20.900;2023-02-15T14:35:15;5.45;;;1.73;;
50543;SDS011;41176;44.032;20.900;2023-02-15T14:49:35;2.33;;;1.45;;
50543;SDS011;41176;44.032;20.900;2023-02-15T14:52:02;2.58;;;1.42;;
50543;SDS011;41176;44.032;20.900;2023-02-15T15:07:22;3.22;;;1.70;;
50543;SDS011;41176;44.032;20.900;2023-02-15T15:09:59;3.40;;;2.13;;
50543;SDS011;41176;44.032;20.900;2023-02-15T15:14:57;5.85;;;2.25;;
50543;SDS011;41176;44.032;20.900;2023-02-15T15:20:04;4.15;;;2.00;;
50543;SDS011;41176;44.032;20.900;2023-02-15T15:22:38;7.65;;;3.38;;
50543;SDS011;41176;44.032;20.900;2023-02-15T15:25:08;4.28;;;2.63;;
50543;SDS011;41176;44.032;20.900;2023-02-15T15:27:40;5.82;;;2.75;;
50543;SDS011;41176;44.032;20.900;2023-02-15T15:35:27;7.05;;;3.60;;
50543;SDS011;41176;44.032;20.900;2023-02-15T15:49:28;9.40;;;5.60;;
50543;SDS011;41176;44.032;20.900;2023-02-15T15:52:01;6.55;;;4.38;;
50543;SDS011;41176;44.032;20.900;2023-02-15T15:54:52;9.75;;;5.32;;
50543;SDS011;41176;44.032;20.900;2023-02-15T15:57:29;16.10;;;6.85;;
50543;SDS011;41176;44.032;20.900;2023-02-15T15:59:59;9.55;;;4.25;;
50543;SDS011;41176;44.032;20.900;2023-02-15T16:02:24;10.10;;;5.38;;
50543;SDS011;41176;44.032;20.900;2023-02-15T16:04:50;6.50;;;3.95;;
50543;SDS011;41176;44.032;20.900;2023-02-15T16:12:21;10.63;;;5.80;;
50543;SDS011;41176;44.032;20.900;2023-02-15T16:14:47;8.52;;;6.47;;
50543;SDS011;41176;44.032;20.900;2023-02-15T16:17:24;12.55;;;8.80;;
50543;SDS011;41176;44.032;20.900;2023-02-15T16:19:59;13.98;;;7.53;;
50543;SDS011;41176;44.032;20.900;2023-02-15T16:22:30;7.30;;;6.10;;
50543;SDS011;41176;44.032;20.900;2023-02-15T16:30:13;21.02;;;7.53;;
50543;SDS011;41176;44.032;20.900;2023-02-15T16:32:54;15.63;;;8.82;;
50543;SDS011;41176;44.032;20.900;2023-02-15T16:35:28;22.50;;;11.57;;
50543;SDS011;41176;44.032;20.900;2023-02-15T16:37:54;14.10;;;10.93;;
50543;SDS011;41176;44.032;20.900;2023-02-15T16:42:52;14.80;;;9.98;;
50543;SDS011;41176;44.032;20.900;2023-02-15T16:45:21;14.57;;;8.98;;
50543;SDS011;41176;44.032;20.900;2023-02-15T16:47:55;16.50;;;9.33;;
50543;SDS011;41176;44.032;20.900;2023-02-15T16:50:32;25.15;;;11.45;;
50543;SDS011;41176;44.032;20.900;2023-02-15T16:53:01;26.77;;;11.43;;
50543;SDS011;41176;44.032;20.900;2023-02-15T16:55:37;9.15;;;5.05;;
50543;SDS011;41176;44.032;20.900;2023-02-15T16:58:06;5.72;;;4.35;;
50543;SDS011;41176;44.032;20.900;2023-02-15T17:00:37;10.35;;;6.38;;
50543;SDS011;41176;44.032;20.900;2023-02-15T17:11:44;7.82;;;4.85;;
50543;SDS011;41176;44.032;20.900;2023-02-15T17:16:41;9.65;;;5.63;;
50543;SDS011;41176;44.032;20.900;2023-02-15T17:19:14;17.33;;;7.22;;
50543;SDS011;41176;44.032;20.900;2023-02-15T17:22:00;8.75;;;6.15;;
50543;SDS011;41176;44.032;20.900;2023-02-15T17:24:34;12.90;;;6.60;;
50543;SDS011;41176;44.032;20.900;2023-02-15T17:27:12;9.05;;;7.38;;
50543;SDS011;41176;44.032;20.900;2023-02-15T17:32:59;10.93;;;5.25;;
50543;SDS011;41176;44.032;20.900;2023-02-15T17:35:29;5.63;;;4.82;;
50543;SDS011;41176;44.032;20.900;2023-02-15T17:38:06;11.10;;;4.93;;
50543;SDS011;41176;44.032;20.900;2023-02-15T17:40:45;11.00;;;5.60;;
50543;SDS011;41176;44.032;20.900;2023-02-15T17:43:11;9.20;;;7.28;;
50543;SDS011;41176;44.032;20.900;2023-02-15T17:46:10;18.30;;;8.57;;
50543;SDS011;41176;44.032;20.900;2023-02-15T17:48:35;9.38;;;6.95;;
50543;SDS011;41176;44.032;20.900;2023-02-15T17:51:06;18.42;;;7.55;;
50543;SDS011;41176;44.032;20.900;2023-02-15T17:53:40;17.02;;;8.43;;
50543;SDS011;41176;44.032;20.900;2023-02-15T17:56:26;17.25;;;9.35;;
50543;SDS011;41176;44.032;20.900;2023-02-15T17:58:52;16.73;;;9.35;;
50543;SDS011;41176;44.032;20.900;2023-02-15T18:01:17;19.27;;;11.35;;
50543;SDS011;41176;44.032;20.900;2023-02-15T18:04:04;21.15;;;13.05;;
50543;SDS011;41176;44.032;20.900;2023-02-15T18:06:52;29.02;;;12.68;;
50543;SDS011;41176;44.032;20.900;2023-02-15T18:09:37;17.02;;;11.43;;
50543;SDS011;41176;44.032;20.900;2023-02-15T18:12:25;12.18;;;8.63;;
50543;SDS011;41176;44.032;20.900;2023-02-15T18:14:54;21.17;;;11.23;;
50543;SDS011;41176;44.032;20.900;2023-02-15T18:17:38;20.10;;;13.38;;
50543;SDS011;41176;44.032;20.900;2023-02-15T18:20:32;19.98;;;11.32;;
50543;SDS011;41176;44.032;20.900;2023-02-15T18:22:59;14.45;;;10.43;;
50543;SDS011;41176;44.032;20.900;2023-02-15T18:25:26;11.25;;;10.10;;
50543;SDS011;41176;44.032;20.900;2023-02-15T18:27:51;13.38;;;9.55;;
50543;SDS011;41176;44.032;20.900;2023-02-15T18:30:19;18.45;;;11.77;;
50543;SDS011;41176;44.032;20.900;2023-02-15T18:32:48;18.65;;;11.32;;
50543;SDS011;41176;44.032;20.900;2023-02-15T18:35:22;15.90;;;10.38;;
50543;SDS011;41176;44.032;20.900;2023-02-15T18:38:02;12.13;;;9.63;;
50543;SDS011;41176;44.032;20.900;2023-02-15T18:40:32;19.23;;;12.07;;
50543;SDS011;41176;44.032;20.900;2023-02-15T18:43:03;18.05;;;11.93;;
50543;SDS011;41176;44.032;20.900;2023-02-15T18:45:31;25.77;;;16.77;;
50543;SDS011;41176;44.032;20.900;2023-02-15T18:47:59;24.40;;;16.10;;
50543;SDS011;41176;44.032;20.900;2023-02-15T18:50:26;19.73;;;13.60;;
50543;SDS011;41176;44.032;20.900;2023-02-15T18:52:57;27.65;;;11.95;;
50543;SDS011;41176;44.032;20.900;2023-02-15T18:55:26;17.67;;;10.02;;
50543;SDS011;41176;44.032;20.900;2023-02-15T18:57:53;17.73;;;9.60;;
50543;SDS011;41176;44.032;20.900;2023-02-15T19:00:27;18.90;;;11.68;;
50543;SDS011;41176;44.032;20.900;2023-02-15T19:02:56;18.85;;;12.43;;
50543;SDS011;41176;44.032;20.900;2023-02-15T19:05:24;25.08;;;12.48;;
50543;SDS011;41176;44.032;20.900;2023-02-15T19:07:52;25.58;;;13.57;;
50543;SDS011;41176;44.032;20.900;2023-02-15T19:10:20;26.05;;;15.68;;
50543;SDS011;41176;44.032;20.900;2023-02-15T19:12:52;22.27;;;14.50;;
50543;SDS011;41176;44.032;20.900;2023-02-15T19:15:19;24.58;;;16.42;;
50543;SDS011;41176;44.032;20.900;2023-02-15T19:17:48;26.02;;;16.20;;
50543;SDS011;41176;44.032;20.900;2023-02-15T19:20:21;27.80;;;16.65;;
50543;SDS011;41176;44.032;20.900;2023-02-15T19:22:49;28.20;;;14.13;;
50543;SDS011;41176;44.032;20.900;2023-02-15T19:25:21;25.60;;;14.23;;
50543;SDS011;41176;44.032;20.900;2023-02-15T19:27:51;24.63;;;13.27;;
50543;SDS011;41176;44.032;20.900;2023-02-15T19:30:24;31.58;;;21.05;;
50543;SDS011;41176;44.032;20.900;2023-02-15T19:32:53;43.95;;;22.60;;
50543;SDS011;41176;44.032;20.900;2023-02-15T19:35:22;37.35;;;21.42;;
50543;SDS011;41176;44.032;20.900;2023-02-15T19:37:52;37.63;;;17.10;;
50543;SDS011;41176;44.032;20.900;2023-02-15T19:40:22;26.50;;;15.23;;
50543;SDS011;41176;44.032;20.900;2023-02-15T19:42:51;28.15;;;16.15;;
50543;SDS011;41176;44.032;20.900;2023-02-15T19:45:21;26.30;;;16.13;;
50543;SDS011;41176;44.032;20.900;2023-02-15T19:47:48;24.98;;;17.27;;
50543;SDS011;41176;44.032;20.900;2023-02-15T19:50:20;32.70;;;16.65;;
50543;SDS011;41176;44.032;20.900;2023-02-15T19:52:50;22.52;;;12.55;;
50543;SDS011;41176;44.032;20.900;2023-02-15T19:55:22;31.17;;;17.50;;
50543;SDS011;41176;44.032;20.900;2023-02-15T19:57:56;33.22;;;16.02;;
50543;SDS011;41176;44.032;20.900;2023-02-15T20:00:25;20.38;;;15.45;;
50543;SDS011;41176;44.032;20.900;2023-02-15T20:02:54;28.38;;;16.58;;
50543;SDS011;41176;44.032;20.900;2023-02-15T20:05:20;19.83;;;14.00;;
50543;SDS011;41176;44.032;20.900;2023-02-15T20:07:48;21.13;;;12.10;;
50543;SDS011;41176;44.032;20.900;2023-02-15T20:10:17;15.93;;;10.55;;
50543;SDS011;41176;44.032;20.900;2023-02-15T20:12:47;22.45;;;11.45;;
50543;SDS011;41176;44.032;20.900;2023-02-15T20:15:48;20.15;;;12.40;;
50543;SDS011;41176;44.032;20.900;2023-02-15T20:18:05;24.05;;;14.02;;
50543;SDS011;41176;44.032;20.900;2023-02-15T20:20:33;28.52;;;14.77;;
50543;SDS011;41176;44.032;20.900;2023-02-15T20:23:05;29.05;;;15.52;;
50543;SDS011;41176;44.032;20.900;2023-02-15T20:25:31;17.98;;;12.98;;
50543;SDS011;41176;44.032;20.900;2023-02-15T20:27:58;25.65;;;12.95;;
50543;SDS011;41176;44.032;20.900;2023-02-15T20:30:27;27.08;;;14.25;;
50543;SDS011;41176;44.032;20.900;2023-02-15T20:32:54;18.63;;;12.35;;
50543;SDS011;41176;44.032;20.900;2023-02-15T20:35:23;17.88;;;13.35;;
50543;SDS011;41176;44.032;20.900;2023-02-15T20:37:53;13.95;;;10.35;;
50543;SDS011;41176;44.032;20.900;2023-02-15T20:40:25;23.00;;;12.75;;
50543;SDS011;41176;44.032;20.900;2023-02-15T20:42:53;14.97;;;10.27;;
50543;SDS011;41176;44.032;20.900;2023-02-15T20:45:20;17.65;;;9.63;;
50543;SDS011;41176;44.032;20.900;2023-02-15T20:47:51;17.00;;;10.70;;
50543;SDS011;41176;44.032;20.900;2023-02-15T20:50:19;25.08;;;12.00;;
50543;SDS011;41176;44.032;20.900;2023-02-15T20:52:48;22.02;;;12.75;;
50543;SDS011;41176;44.032;20.900;2023-02-15T20:55:24;18.65;;;11.25;;
50543;SDS011;41176;44.032;20.900;2023-02-15T20:57:53;24.50;;;10.45;;
50543;SDS011;41176;44.032;20.900;2023-02-15T21:00:24;17.98;;;8.65;;
50543;SDS011;41176;44.032;20.900;2023-02-15T21:02:59;15.10;;;8.07;;
50543;SDS011;41176;44.032;20.900;2023-02-15T21:05:26;9.88;;;8.02;;
50543;SDS011;41176;44.032;20.900;2023-02-15T21:08:00;20.00;;;7.90;;
50543;SDS011;41176;44.032;20.900;2023-02-15T21:10:34;16.33;;;8.98;;
50543;SDS011;41176;44.032;20.900;2023-02-15T21:13:00;14.38;;;7.20;;
50543;SDS011;41176;44.032;20.900;2023-02-15T21:18:09;10.23;;;7.35;;
50543;SDS011;41176;44.032;20.900;2023-02-15T21:20:52;15.18;;;8.45;;
50543;SDS011;41176;44.032;20.900;2023-02-15T21:23:21;14.60;;;9.07;;
50543;SDS011;41176;44.032;20.900;2023-02-15T21:25:50;16.05;;;7.80;;
50543;SDS011;41176;44.032;20.900;2023-02-15T21:28:17;11.13;;;7.97;;